Time;durP1;ratioP1;P1;durP2;ratioP2;P2;SDS_P1;SDS_P2;PMS_P1;PMS_P2;Temp;Humidity;BMP_temperature;BMP_pressure;BME280_temperature;BME280_humidity;BME280_pressure;Samples;Min_cycle;Max_cycle;Signal;HPM_P1;HPM_P2
2022/07/07 00:02:24;;;;;;;3.50;3.07;;;13.70;99.90;;;;;;5060273;28;20236;-84
2022/07/07 00:04:50;;;;;;;5.70;3.10;;;13.70;99.90;;;;;;5054272;28;20227;-86
2022/07/07 00:07:17;;;;;;;3.20;3.00;;;13.70;99.90;;;;;;5062390;28;20595;-84
2022/07/07 00:09:44;;;;;;;3.70;3.40;;;13.70;99.90;;;;;;5058118;28;20218;-85
2022/07/07 00:12:11;;;;;;;4.20;3.10;;;13.70;99.90;;;;;;5062000;28;20216;-85
2022/07/07 00:14:39;;;;;;;3.20;2.90;;;13.70;99.90;;;;;;5062498;28;20232;-84
2022/07/07 00:17:06;;;;;;;3.60;3.30;;;13.70;99.90;;;;;;5065457;28;20226;-84
2022/07/07 00:19:32;;;;;;;3.37;3.07;;;13.70;99.90;;;;;;5060073;28;20230;-84
2022/07/07 00:21:59;;;;;;;3.40;2.93;;;13.70;99.90;;;;;;5070628;28;20313;-84
2022/07/07 00:24:26;;;;;;;3.60;3.30;;;13.80;99.90;;;;;;5058299;28;20997;-84
2022/07/07 00:26:52;;;;;;;3.40;3.10;;;13.80;99.90;;;;;;5059446;28;20773;-83
2022/07/07 00:29:19;;;;;;;3.33;3.07;;;13.80;99.90;;;;;;5062962;28;20229;-82
2022/07/07 00:31:47;;;;;;;4.03;3.70;;;13.80;99.90;;;;;;5065155;28;20327;-83
2022/07/07 00:34:14;;;;;;;3.40;3.10;;;13.80;99.90;;;;;;5061252;28;20230;-83
2022/07/07 00:36:43;;;;;;;4.10;3.80;;;13.90;99.90;;;;;;5060842;28;20225;-83
2022/07/07 00:39:09;;;;;;;4.00;3.70;;;13.90;99.90;;;;;;5060851;28;20234;-83
2022/07/07 00:41:37;;;;;;;4.37;3.97;;;13.90;99.90;;;;;;5062023;28;20213;-84
2022/07/07 00:44:04;;;;;;;4.00;3.70;;;13.90;99.90;;;;;;5052684;28;20753;-84
2022/07/07 00:46:42;;;;;;;3.90;3.60;;;13.90;99.90;;;;;;5063276;28;20238;-84
2022/07/07 00:49:11;;;;;;;4.20;3.70;;;13.90;99.90;;;;;;5069961;28;20230;-86
2022/07/07 00:51:38;;;;;;;3.90;3.60;;;13.90;99.90;;;;;;5059036;28;20228;-86
2022/07/07 00:54:05;;;;;;;7.93;4.10;;;14.00;99.90;;;;;;5055280;28;20317;-88
2022/07/07 00:56:32;;;;;;;4.10;3.67;;;14.00;99.90;;;;;;5068495;28;20226;-87
2022/07/07 00:59:02;;;;;;;4.20;3.80;;;14.00;99.90;;;;;;5066280;28;20269;-86
2022/07/07 01:01:29;;;;;;;4.43;3.60;;;13.90;99.90;;;;;;5065267;28;20230;-85
2022/07/07 01:03:56;;;;;;;4.23;3.50;;;14.00;99.90;;;;;;5064101;28;20295;-85
2022/07/07 01:06:24;;;;;;;6.77;3.73;;;14.00;99.90;;;;;;5064002;28;20230;-85
2022/07/07 01:08:52;;;;;;;5.13;3.90;;;13.90;99.90;;;;;;5064847;28;20219;-87
2022/07/07 01:11:19;;;;;;;5.80;3.60;;;13.90;99.90;;;;;;5060842;28;20321;-87
2022/07/07 01:13:46;;;;;;;3.73;3.43;;;13.90;99.90;;;;;;5065756;28;20224;-87
2022/07/07 01:16:12;;;;;;;4.80;3.57;;;13.90;99.90;;;;;;5060549;28;20229;-86
2022/07/07 01:18:41;;;;;;;4.20;3.90;;;13.90;99.90;;;;;;5065921;28;20229;-86
2022/07/07 01:21:10;;;;;;;5.97;3.63;;;13.90;99.90;;;;;;5078736;28;20245;-85
2022/07/07 01:23:38;;;;;;;5.27;4.10;;;13.90;99.90;;;;;;5064057;28;21000;-85
2022/07/07 01:26:05;;;;;;;4.10;3.70;;;13.90;99.90;;;;;;5064487;28;20221;-85
2022/07/07 01:28:33;;;;;;;4.83;3.93;;;13.90;99.90;;;;;;5064216;28;20630;-86
2022/07/07 01:31:00;;;;;;;6.00;3.83;;;13.90;99.90;;;;;;5069661;28;20250;-86
2022/07/07 01:33:26;;;;;;;4.67;4.20;;;13.90;99.90;;;;;;5068297;28;20234;-86
2022/07/07 01:35:53;;;;;;;4.20;3.80;;;13.90;99.90;;;;;;5063667;28;20229;-87
2022/07/07 01:38:20;;;;;;;4.60;4.20;;;13.90;99.90;;;;;;5066741;28;20229;-86
2022/07/07 01:40:48;;;;;;;4.30;3.97;;;13.90;99.90;;;;;;5058577;28;20922;-85
2022/07/07 01:43:14;;;;;;;4.33;4.00;;;13.90;99.90;;;;;;5063233;28;20862;-85
2022/07/07 01:45:41;;;;;;;4.80;4.40;;;14.00;99.90;;;;;;5060772;28;20217;-85
2022/07/07 01:48:08;;;;;;;4.77;4.33;;;14.00;99.90;;;;;;5061724;28;20217;-86
2022/07/07 01:50:35;;;;;;;4.47;4.10;;;13.90;99.90;;;;;;5064866;28;20230;-86
2022/07/07 01:53:02;;;;;;;4.60;4.20;;;14.00;99.90;;;;;;5060304;28;20225;-86
2022/07/07 01:55:28;;;;;;;4.60;4.20;;;14.00;99.90;;;;;;5061166;28;20224;-86
2022/07/07 01:57:56;;;;;;;4.13;3.83;;;14.00;99.90;;;;;;5061339;28;20229;-86
2022/07/07 02:00:23;;;;;;;4.60;4.20;;;14.00;99.90;;;;;;5056522;28;20227;-86
2022/07/07 02:02:50;;;;;;;4.43;4.03;;;14.00;99.90;;;;;;5066797;28;20233;-85
2022/07/07 02:05:16;;;;;;;4.83;4.43;;;14.10;99.90;;;;;;5064977;28;20230;-87
2022/07/07 02:07:45;;;;;;;4.60;4.20;;;14.10;99.90;;;;;;5077483;28;20300;-85
2022/07/07 02:10:12;;;;;;;4.80;4.40;;;14.10;99.90;;;;;;5063888;28;20252;-85
2022/07/07 02:12:38;;;;;;;5.47;4.43;;;14.10;99.90;;;;;;5064019;28;20233;-84
2022/07/07 02:15:08;;;;;;;5.57;5.00;;;14.10;99.90;;;;;;5063738;28;20229;-85
2022/07/07 02:17:35;;;;;;;4.97;4.57;;;14.20;99.90;;;;;;5060014;28;20228;-86
2022/07/07 02:20:02;;;;;;;5.63;5.13;;;14.10;99.90;;;;;;5062155;28;20317;-85
2022/07/07 02:22:29;;;;;;;5.97;5.47;;;14.10;99.90;;;;;;5059833;28;20227;-86
2022/07/07 02:24:55;;;;;;;6.57;6.00;;;14.20;99.90;;;;;;5063319;28;20237;-86
2022/07/07 02:27:22;;;;;;;6.23;5.73;;;14.20;99.90;;;;;;5064895;28;20227;-85
2022/07/07 02:29:49;;;;;;;7.03;6.33;;;14.20;99.90;;;;;;5058961;28;20230;-84
2022/07/07 02:32:17;;;;;;;6.70;6.10;;;14.30;99.90;;;;;;5068705;28;20231;-84
2022/07/07 02:34:44;;;;;;;6.97;6.27;;;14.30;99.90;;;;;;5061866;28;20246;-85
2022/07/07 02:37:10;;;;;;;7.57;6.87;;;14.30;99.90;;;;;;5071781;28;20230;-84
2022/07/07 02:39:37;;;;;;;7.27;6.60;;;14.30;99.90;;;;;;5059972;28;20231;-83
2022/07/07 02:42:04;;;;;;;7.27;6.57;;;14.30;99.90;;;;;;5062793;28;20223;-84
2022/07/07 02:44:31;;;;;;;8.53;7.10;;;14.40;99.90;;;;;;5066025;28;20231;-84
2022/07/07 02:46:58;;;;;;;8.67;7.87;;;14.40;99.90;;;;;;5064019;28;20224;-83
2022/07/07 02:49:26;;;;;;;9.67;8.67;;;14.40;99.90;;;;;;5067743;28;20645;-82
2022/07/07 02:51:53;;;;;;;10.20;9.20;;;14.40;99.90;;;;;;5064610;28;20237;-83
2022/07/07 02:54:19;;;;;;;10.53;9.53;;;14.40;99.90;;;;;;5059596;28;20235;-83
2022/07/07 02:56:46;;;;;;;11.47;10.30;;;14.40;99.90;;;;;;5066634;28;20222;-84
2022/07/07 02:59:13;;;;;;;10.67;9.67;;;14.40;99.90;;;;;;5063784;28;20216;-85
2022/07/07 03:01:40;;;;;;;11.40;10.20;;;14.50;99.90;;;;;;5061929;28;20238;-84
2022/07/07 03:04:07;;;;;;;11.53;10.17;;;14.50;99.90;;;;;;5060420;28;20330;-84
2022/07/07 03:06:35;;;;;;;10.70;9.70;;;14.50;99.90;;;;;;5064283;28;20236;-85
2022/07/07 03:09:01;;;;;;;12.13;10.73;;;14.50;99.90;;;;;;5059800;28;20315;-85
2022/07/07 03:11:28;;;;;;;11.97;10.87;;;14.50;99.90;;;;;;5062414;28;20226;-85
2022/07/07 03:13:55;;;;;;;11.93;10.73;;;14.50;99.90;;;;;;5058265;28;20714;-85
2022/07/07 03:16:22;;;;;;;13.07;11.67;;;14.60;99.90;;;;;;5059449;28;20221;-84
2022/07/07 03:18:48;;;;;;;13.23;11.93;;;14.60;99.90;;;;;;5063529;28;20833;-86
2022/07/07 03:21:15;;;;;;;12.93;11.60;;;14.60;99.90;;;;;;5059007;28;20295;-86
2022/07/07 03:23:43;;;;;;;14.50;12.57;;;14.60;99.90;;;;;;5061029;28;20236;-84
2022/07/07 03:26:09;;;;;;;14.13;12.77;;;14.60;99.90;;;;;;5056333;28;20231;-84
2022/07/07 03:28:36;;;;;;;14.83;13.23;;;14.60;99.90;;;;;;5060487;28;20227;-84
2022/07/07 03:31:03;;;;;;;13.33;12.13;;;14.60;99.90;;;;;;5059635;28;20897;-86
2022/07/07 03:33:30;;;;;;;18.80;13.23;;;14.70;99.90;;;;;;5060001;28;20582;-86
2022/07/07 03:35:56;;;;;;;14.90;13.13;;;14.70;99.90;;;;;;5054918;28;20642;-85
2022/07/07 03:38:23;;;;;;;14.97;13.47;;;14.70;99.90;;;;;;5063146;28;20313;-87
2022/07/07 03:40:51;;;;;;;14.37;12.87;;;14.70;99.90;;;;;;5063669;28;20220;-85
2022/07/07 03:43:18;;;;;;;15.43;13.93;;;14.70;99.90;;;;;;5063476;28;20229;-85
2022/07/07 03:45:44;;;;;;;15.67;13.43;;;14.70;99.90;;;;;;5064979;28;20241;-85
2022/07/07 03:48:11;;;;;;;14.67;13.17;;;14.70;99.90;;;;;;5053658;28;20310;-86
2022/07/07 03:50:38;;;;;;;14.33;12.77;;;14.70;99.90;;;;;;5061581;28;20251;-85
2022/07/07 03:53:05;;;;;;;16.50;14.70;;;14.70;99.90;;;;;;5052616;28;20233;-85
2022/07/07 03:55:31;;;;;;;15.77;14.17;;;14.70;99.90;;;;;;5068349;28;20227;-86
2022/07/07 03:58:00;;;;;;;16.00;14.33;;;14.70;99.90;;;;;;5061439;28;20224;-86
2022/07/07 04:00:26;;;;;;;15.83;14.23;;;14.70;99.90;;;;;;5056704;28;20227;-85
2022/07/07 04:02:53;;;;;;;15.43;13.77;;;14.70;99.90;;;;;;5054123;28;20234;-85
2022/07/07 04:05:20;;;;;;;15.53;13.93;;;14.70;99.90;;;;;;5055413;28;20739;-84
2022/07/07 04:07:47;;;;;;;15.60;14.00;;;14.70;99.90;;;;;;5060985;28;20668;-85
2022/07/07 04:10:13;;;;;;;15.70;14.13;;;14.70;99.90;;;;;;5058567;28;20245;-85
2022/07/07 04:12:40;;;;;;;15.53;13.93;;;14.70;99.90;;;;;;5063929;28;20318;-84
2022/07/07 04:15:09;;;;;;;14.63;13.13;;;14.70;99.90;;;;;;5059585;28;20272;-86
2022/07/07 04:17:36;;;;;;;14.60;13.17;;;14.70;99.90;;;;;;5064443;28;20308;-84
2022/07/07 04:20:04;;;;;;;14.90;12.93;;;14.70;99.90;;;;;;5058593;28;20218;-86
2022/07/07 04:22:31;;;;;;;16.97;13.07;;;14.70;99.90;;;;;;5060891;28;20711;-85
2022/07/07 04:24:58;;;;;;;14.97;12.50;;;14.70;99.90;;;;;;5058079;28;20315;-85
2022/07/07 04:27:24;;;;;;;15.10;12.77;;;14.70;99.90;;;;;;5055084;28;20234;-86
2022/07/07 04:29:51;;;;;;;14.43;12.83;;;14.70;99.90;;;;;;5060736;28;20754;-86
2022/07/07 04:32:19;;;;;;;58.97;14.33;;;14.70;99.90;;;;;;5059279;28;20716;-86
2022/07/07 04:34:46;;;;;;;20.07;12.20;;;14.70;99.90;;;;;;5056354;28;20618;-82
2022/07/07 04:37:12;;;;;;;18.37;11.87;;;14.70;99.90;;;;;;5066859;28;20251;-85
2022/07/07 04:39:39;;;;;;;48.53;13.20;;;14.70;99.90;;;;;;5054191;28;20246;-87
2022/07/07 04:42:06;;;;;;;11.60;10.40;;;14.70;99.90;;;;;;5064929;28;20307;-87
2022/07/07 04:44:33;;;;;;;12.77;9.63;;;14.70;99.90;;;;;;5059398;28;20233;-86
2022/07/07 04:47:00;;;;;;;13.97;9.67;;;14.70;99.90;;;;;;5066677;28;20622;-87
2022/07/07 04:49:28;;;;;;;10.43;9.33;;;14.60;99.90;;;;;;5063999;28;20226;-86
2022/07/07 04:51:54;;;;;;;10.60;9.50;;;14.70;99.90;;;;;;5064978;28;20271;-87
2022/07/07 04:54:21;;;;;;;9.83;8.93;;;14.70;99.90;;;;;;5059651;28;20237;-87
2022/07/07 04:56:47;;;;;;;14.63;9.77;;;14.70;99.90;;;;;;5061846;28;20225;-87
2022/07/07 04:59:14;;;;;;;11.30;9.07;;;14.70;99.90;;;;;;5063297;28;20217;-87
2022/07/07 05:01:41;;;;;;;13.50;9.90;;;14.70;99.90;;;;;;5061795;28;20227;-87
2022/07/07 05:04:08;;;;;;;11.50;9.83;;;14.70;99.90;;;;;;5064024;28;20230;-87
2022/07/07 05:06:36;;;;;;;16.57;10.83;;;14.70;99.90;;;;;;5060133;28;20225;-86
2022/07/07 05:09:03;;;;;;;17.47;9.73;;;14.70;99.90;;;;;;5057833;28;20230;-85
2022/07/07 05:11:30;;;;;;;11.60;10.40;;;14.70;99.90;;;;;;5059344;28;20324;-85
2022/07/07 05:13:56;;;;;;;10.43;9.33;;;14.70;99.90;;;;;;5059496;28;20234;-83
2022/07/07 05:16:23;;;;;;;10.53;9.33;;;14.70;99.90;;;;;;5060131;28;20322;-85
2022/07/07 05:18:50;;;;;;;11.37;9.77;;;14.80;99.90;;;;;;5061465;28;20250;-85
2022/07/07 05:21:17;;;;;;;9.93;8.93;;;14.80;99.90;;;;;;5056964;28;20239;-84
2022/07/07 05:23:45;;;;;;;10.77;9.67;;;14.80;99.90;;;;;;5060348;28;20712;-85
2022/07/07 05:26:12;;;;;;;11.13;8.87;;;14.80;99.90;;;;;;5070368;28;20339;-85
2022/07/07 05:28:41;;;;;;;9.07;8.17;;;14.90;99.90;;;;;;5058633;28;20218;-85
2022/07/07 05:31:08;;;;;;;10.00;9.00;;;14.90;99.90;;;;;;5070798;28;20233;-85
2022/07/07 05:33:35;;;;;;;8.70;7.73;;;14.90;99.90;;;;;;5043730;28;20226;-85
2022/07/07 05:36:01;;;;;;;8.27;7.57;;;15.00;99.90;;;;;;5069373;28;20219;-85
2022/07/07 05:38:28;;;;;;;6.90;6.30;;;15.00;99.90;;;;;;5067646;28;20227;-86
2022/07/07 05:40:56;;;;;;;5.60;5.07;;;15.00;99.90;;;;;;5067014;28;20221;-85
2022/07/07 05:43:23;;;;;;;4.77;4.30;;;15.10;99.90;;;;;;5064758;28;20695;-85
2022/07/07 05:45:49;;;;;;;4.13;3.83;;;15.10;99.90;;;;;;5067386;28;20234;-86
2022/07/07 05:48:17;;;;;;;4.30;3.90;;;15.20;99.90;;;;;;5076663;28;20235;-86
2022/07/07 05:50:44;;;;;;;4.13;3.73;;;15.20;99.90;;;;;;5066385;28;20227;-86
2022/07/07 05:53:11;;;;;;;3.63;3.30;;;15.20;99.90;;;;;;5066837;28;20223;-85
2022/07/07 05:55:38;;;;;;;3.87;3.00;;;15.30;99.90;;;;;;5064111;28;20241;-85
2022/07/07 05:58:06;;;;;;;3.20;2.90;;;15.30;99.90;;;;;;5064944;28;20229;-85
2022/07/07 06:00:33;;;;;;;2.77;2.30;;;15.40;99.90;;;;;;5062652;28;20231;-84
2022/07/07 06:03:00;;;;;;;2.63;1.80;;;15.40;99.90;;;;;;5061958;28;20231;-84
2022/07/07 06:05:27;;;;;;;2.73;2.20;;;15.40;99.90;;;;;;5065979;28;20767;-85
2022/07/07 06:07:53;;;;;;;2.30;1.90;;;15.40;99.90;;;;;;5062786;28;20258;-85
2022/07/07 06:10:20;;;;;;;2.00;1.70;;;15.50;99.90;;;;;;5062764;28;20224;-85
2022/07/07 06:12:48;;;;;;;2.60;1.60;;;15.60;99.90;;;;;;5065589;28;20229;-85
2022/07/07 06:15:17;;;;;;;2.80;2.10;;;15.60;99.90;;;;;;5059798;28;20636;-85
2022/07/07 06:17:44;;;;;;;2.53;1.63;;;15.60;99.90;;;;;;5062321;28;20571;-85
2022/07/07 06:20:12;;;;;;;2.17;1.73;;;15.70;99.90;;;;;;5057895;28;20233;-85
2022/07/07 06:22:39;;;;;;;1.57;1.20;;;15.80;99.90;;;;;;5062147;28;20239;-85
2022/07/07 06:25:07;;;;;;;2.00;1.30;;;15.90;99.90;;;;;;5064220;28;20641;-85
2022/07/07 06:27:34;;;;;;;2.63;1.63;;;15.90;99.90;;;;;;5061536;28;20223;-83
2022/07/07 06:30:00;;;;;;;1.53;1.43;;;16.00;99.90;;;;;;5060612;28;20246;-84
2022/07/07 06:32:28;;;;;;;1.23;1.13;;;16.10;99.90;;;;;;5064862;28;20307;-84
2022/07/07 06:34:55;;;;;;;1.47;1.27;;;16.20;99.90;;;;;;5061727;28;20223;-84
2022/07/07 06:37:21;;;;;;;1.23;1.13;;;16.30;99.90;;;;;;5060730;28;20224;-85
2022/07/07 06:39:48;;;;;;;2.10;0.90;;;16.30;99.90;;;;;;5062906;28;20224;-85
2022/07/07 06:42:15;;;;;;;1.80;1.10;;;16.40;99.90;;;;;;5066037;28;21032;-84
2022/07/07 06:44:44;;;;;;;1.97;1.00;;;16.40;99.90;;;;;;5064942;28;20220;-84
2022/07/07 06:47:10;;;;;;;1.50;1.10;;;16.50;99.90;;;;;;5073445;28;20305;-84
2022/07/07 06:49:38;;;;;;;1.20;1.10;;;16.50;99.90;;;;;;5071013;28;20224;-84
2022/07/07 06:52:06;;;;;;;3.07;1.10;;;16.60;99.90;;;;;;5065265;28;20223;-85
2022/07/07 06:54:32;;;;;;;1.70;1.30;;;16.60;99.90;;;;;;5065175;28;20310;-84
2022/07/07 06:56:59;;;;;;;1.87;1.10;;;16.60;99.90;;;;;;5065952;28;20227;-85
2022/07/07 06:59:26;;;;;;;1.90;1.50;;;16.60;99.90;;;;;;5072456;28;20230;-84
2022/07/07 07:01:52;;;;;;;1.10;1.00;;;16.70;99.90;;;;;;5064631;28;20699;-84
2022/07/07 07:04:19;;;;;;;2.90;1.77;;;16.80;99.90;;;;;;5065048;28;20261;-84
2022/07/07 07:06:47;;;;;;;2.70;1.80;;;16.90;99.90;;;;;;5066616;28;20227;-84
2022/07/07 07:09:14;;;;;;;1.93;1.40;;;17.00;99.90;;;;;;5061104;28;20226;-87
2022/07/07 07:11:41;;;;;;;2.47;1.40;;;17.10;99.90;;;;;;5062395;28;20227;-85
2022/07/07 07:14:08;;;;;;;3.10;1.70;;;17.10;99.90;;;;;;5064001;28;20232;-83
2022/07/07 07:16:34;;;;;;;2.10;1.33;;;17.20;99.90;;;;;;5060702;28;20236;-85
2022/07/07 07:19:01;;;;;;;2.27;1.60;;;17.30;99.90;;;;;;5058292;28;20231;-87
2022/07/07 07:21:28;;;;;;;4.43;1.87;;;17.30;99.90;;;;;;5062648;28;20225;-82
2022/07/07 07:23:56;;;;;;;5.47;1.57;;;17.30;99.90;;;;;;5063309;28;20237;-85
2022/07/07 07:26:23;;;;;;;3.33;1.77;;;17.30;99.90;;;;;;5056390;28;20258;-85
2022/07/07 07:28:50;;;;;;;3.50;1.50;;;17.30;99.90;;;;;;5068685;28;20596;-84
2022/07/07 07:31:17;;;;;;;2.90;1.70;;;17.30;99.90;;;;;;5062725;28;20246;-86
2022/07/07 07:33:44;;;;;;;6.17;1.93;;;17.30;99.90;;;;;;5057435;28;20375;-86
2022/07/07 07:36:11;;;;;;;5.20;1.90;;;17.40;99.90;;;;;;5063093;28;20223;-84
2022/07/07 07:38:39;;;;;;;5.68;2.00;;;17.50;99.90;;;;;;5058808;28;20250;-88
2022/07/07 07:41:09;;;;;;;3.20;1.73;;;17.60;99.90;;;;;;5064404;28;20591;-86
2022/07/07 07:43:36;;;;;;;5.93;2.00;;;17.80;99.90;;;;;;5061719;28;20229;-88
2022/07/07 07:46:03;;;;;;;6.18;1.85;;;18.00;99.90;;;;;;5060326;28;20258;-86
2022/07/07 07:48:29;;;;;;;4.75;1.80;;;18.20;99.90;;;;;;5061890;28;20231;-85
2022/07/07 07:50:56;;;;;;;3.87;1.47;;;18.50;99.90;;;;;;5057491;28;20326;-86
2022/07/07 07:53:23;;;;;;;5.07;1.67;;;18.80;99.90;;;;;;5062058;28;20223;-85
2022/07/07 07:55:50;;;;;;;5.13;1.60;;;19.00;99.90;;;;;;5063013;28;20227;-85
2022/07/07 07:58:18;;;;;;;6.95;1.75;;;19.30;99.90;;;;;;5061287;28;20792;-87
2022/07/07 08:00:45;;;;;;;4.15;1.60;;;19.40;99.90;;;;;;5062720;28;20234;-86
2022/07/07 08:03:12;;;;;;;5.93;1.90;;;19.50;99.90;;;;;;5061795;28;20250;-86
2022/07/07 08:05:38;;;;;;;4.45;1.63;;;19.50;99.90;;;;;;5065175;28;20223;-83
2022/07/07 08:08:06;;;;;;;5.47;1.70;;;19.50;99.90;;;;;;5060653;28;20962;-84
2022/07/07 08:10:33;;;;;;;7.57;1.98;;;19.40;99.90;;;;;;5049012;28;20715;-82
2022/07/07 08:13:00;;;;;;;5.78;1.20;;;19.30;99.90;;;;;;5062575;28;20216;-83
2022/07/07 08:15:28;;;;;;;4.45;1.10;;;19.10;99.90;;;;;;5061470;28;20242;-83
2022/07/07 08:17:55;;;;;;;4.22;1.30;;;18.90;99.90;;;;;;5062468;28;20330;-82
2022/07/07 08:20:22;;;;;;;2.17;1.13;;;18.60;99.90;;;;;;5060365;28;20234;-83
2022/07/07 08:22:48;;;;;;;2.00;1.17;;;18.20;99.90;;;;;;5065066;28;20242;-82
2022/07/07 08:25:15;;;;;;;2.83;1.40;;;17.80;99.90;;;;;;5063929;28;20576;-81
2022/07/07 08:27:42;;;;;;;2.73;1.40;;;17.50;99.90;;;;;;5061017;28;20231;-82
2022/07/07 08:30:10;;;;;;;4.10;1.93;;;17.30;99.90;;;;;;5056734;28;20743;-81
2022/07/07 08:32:39;;;;;;;3.37;1.53;;;17.10;99.90;;;;;;5065262;28;20219;-81
2022/07/07 08:35:07;;;;;;;3.00;1.50;;;17.00;99.90;;;;;;5068447;28;20227;-81
2022/07/07 08:37:34;;;;;;;4.60;1.90;;;17.00;99.90;;;;;;5057889;28;20270;-82
2022/07/07 08:40:01;;;;;;;4.25;1.80;;;17.10;99.90;;;;;;5060354;28;20215;-82
2022/07/07 08:42:27;;;;;;;7.07;1.87;;;17.20;99.90;;;;;;5062760;28;20219;-82
2022/07/07 08:44:54;;;;;;;4.03;1.97;;;17.40;99.90;;;;;;5046443;28;20250;-82
2022/07/07 08:47:21;;;;;;;22.90;3.20;;;17.60;99.90;;;;;;5053229;28;20227;-82
2022/07/07 08:49:49;;;;;;;3.37;1.90;;;17.80;99.90;;;;;;5064458;28;20253;-83
2022/07/07 08:52:16;;;;;;;4.53;2.03;;;18.00;99.90;;;;;;5066022;28;20715;-83
2022/07/07 08:54:44;;;;;;;4.20;1.67;;;18.20;99.90;;;;;;5063125;28;20232;-83
2022/07/07 08:57:11;;;;;;;4.40;1.70;;;18.40;99.90;;;;;;5063044;28;20211;-83
2022/07/07 08:59:38;;;;;;;5.90;1.77;;;18.60;99.90;;;;;;5060523;28;20395;-84
2022/07/07 09:02:05;;;;;;;5.23;1.50;;;18.80;99.90;;;;;;5058487;28;20302;-83
2022/07/07 09:04:32;;;;;;;3.47;1.88;;;18.90;99.90;;;;;;5072172;28;20754;-82
2022/07/07 09:07:01;;;;;;;3.75;1.75;;;19.00;99.90;;;;;;5063211;28;20254;-83
2022/07/07 09:09:39;;;;;;;4.43;1.75;;;19.10;99.90;;;;;;5066718;28;20223;-83
2022/07/07 09:12:07;;;;;;;3.33;1.45;;;19.30;99.90;;;;;;5056208;28;20567;-83
2022/07/07 09:14:39;;;;;;;8.55;1.88;;;19.50;99.90;;;;;;5055885;28;20224;-83
2022/07/07 09:17:17;;;;;;;3.42;1.60;;;19.70;99.90;;;;;;5061013;28;20249;-83
2022/07/07 09:19:45;;;;;;;3.80;1.65;;;20.00;99.90;;;;;;5062311;28;20219;-83
2022/07/07 09:22:13;;;;;;;5.00;1.83;;;20.20;99.90;;;;;;5064513;28;20242;-83
2022/07/07 09:24:56;;;;;;;2.85;1.30;;;20.40;99.90;;;;;;5065220;28;20251;-83
2022/07/07 09:27:23;;;;;;;4.53;1.52;;;20.30;99.90;;;;;;5065927;28;20607;-83
2022/07/07 09:29:50;;;;;;;3.90;1.50;;;20.40;99.90;;;;;;5075181;28;20219;-84
2022/07/07 09:32:16;;;;;;;4.03;1.42;;;20.30;99.90;;;;;;5057668;28;20231;-83
2022/07/07 09:34:43;;;;;;;4.88;1.60;;;20.20;99.90;;;;;;5064060;28;20232;-83
2022/07/07 09:39:57;;;;;;;2.30;1.25;;;20.10;99.90;;;;;;5064166;28;20628;-83
2022/07/07 09:42:26;;;;;;;4.13;1.70;;;19.90;99.90;;;;;;5064729;28;20330;-83
2022/07/07 09:44:54;;;;;;;5.78;1.15;;;19.70;99.90;;;;;;5053261;28;20310;-83
2022/07/07 09:47:22;;;;;;;2.33;1.00;;;19.50;99.90;;;;;;5062040;28;20232;-83
2022/07/07 09:50:00;;;;;;;3.27;1.03;;;19.30;99.90;;;;;;5063806;28;20327;-83
2022/07/07 09:52:28;;;;;;;4.17;0.97;;;19.10;99.90;;;;;;5063215;28;20593;-83
2022/07/07 09:54:57;;;;;;;4.07;1.20;;;19.00;99.90;;;;;;5063392;28;20868;-83
2022/07/07 09:57:24;;;;;;;1.90;1.08;;;18.90;99.90;;;;;;5066839;28;20234;-82
2022/07/07 09:59:50;;;;;;;4.33;1.27;;;18.90;99.90;;;;;;5065576;28;20225;-81
2022/07/07 10:02:20;;;;;;;2.25;1.15;;;18.90;99.90;;;;;;5067475;28;20220;-82
2022/07/07 10:04:52;;;;;;;5.20;1.42;;;19.10;99.90;;;;;;5068518;28;20865;-82
2022/07/07 10:07:21;;;;;;;3.35;1.20;;;19.40;99.90;;;;;;5065832;28;20224;-82
2022/07/07 10:09:52;;;;;;;2.50;1.00;;;19.80;99.90;;;;;;5059721;28;20243;-86
2022/07/07 10:12:23;;;;;;;2.38;1.00;;;20.20;99.90;;;;;;5067432;28;20264;-83
2022/07/07 10:14:51;;;;;;;3.03;1.35;;;20.50;99.90;;;;;;5050870;28;20224;-83
2022/07/07 10:17:19;;;;;;;2.72;1.02;;;20.70;99.90;;;;;;5056447;28;20243;-83
2022/07/07 10:19:46;;;;;;;2.35;0.80;;;20.80;99.90;;;;;;5076212;28;20784;-83
2022/07/07 10:22:14;;;;;;;3.65;1.33;;;20.80;99.90;;;;;;5059775;28;20226;-83
2022/07/07 10:24:42;;;;;;;4.40;1.23;;;20.80;99.90;;;;;;5079182;22;20235;-76
2022/07/07 10:27:13;;;;;;;4.97;1.45;;;20.70;99.90;;;;;;5066302;28;20303;-77
2022/07/07 10:29:43;;;;;;;2.97;1.30;;;20.60;99.90;;;;;;5059210;28;20306;-77
2022/07/07 10:32:12;;;;;;;2.10;1.17;;;20.50;99.90;;;;;;5058807;28;20702;-76
2022/07/07 10:34:40;;;;;;;5.53;1.40;;;20.50;99.90;;;;;;5063401;28;20706;-77
2022/07/07 10:37:08;;;;;;;3.38;1.60;;;20.40;99.90;;;;;;5064444;28;20222;-76
2022/07/07 10:39:38;;;;;;;3.50;1.17;;;20.30;99.90;;;;;;5058381;28;20431;-76
2022/07/07 10:42:10;;;;;;;3.35;1.60;;;20.30;99.90;;;;;;5066825;28;20245;-77
2022/07/07 10:44:39;;;;;;;2.50;1.20;;;20.30;99.90;;;;;;5067110;28;20232;-77
2022/07/07 10:47:33;;;;;;;4.00;1.40;;;20.50;99.90;;;;;;5066138;28;20673;-77
2022/07/07 10:50:01;;;;;;;3.10;1.27;;;20.90;99.90;;;;;;5059708;28;20659;-77
2022/07/07 10:52:29;;;;;;;3.42;1.20;;;21.40;99.90;;;;;;5064339;28;20225;-77
2022/07/07 10:54:59;;;;;;;3.70;1.20;;;21.80;99.90;;;;;;5064908;28;20223;-76
2022/07/07 10:57:27;;;;;;;2.85;1.05;;;22.10;99.90;;;;;;5066267;28;20302;-76
2022/07/07 11:00:19;;;;;;;2.35;1.23;;;22.40;99.40;;;;;;5063710;28;20220;-77
2022/07/07 11:02:50;;;;;;;2.65;1.00;;;22.50;98.80;;;;;;5060087;28;20534;-78
2022/07/07 11:05:34;;;;;;;2.45;1.17;;;22.60;99.10;;;;;;5067504;28;20318;-77
2022/07/07 11:08:16;;;;;;;1.90;0.98;;;22.70;98.10;;;;;;5062395;28;20227;-77
2022/07/07 11:10:46;;;;;;;2.80;0.93;;;22.70;97.90;;;;;;5060745;28;20810;-76
2022/07/07 11:13:16;;;;;;;1.42;0.90;;;22.70;97.30;;;;;;5065742;28;20226;-77
2022/07/07 11:15:43;;;;;;;2.95;0.88;;;22.60;97.10;;;;;;5081775;28;20711;-76
2022/07/07 11:18:18;;;;;;;3.67;1.20;;;22.40;97.00;;;;;;5058963;28;20235;-76
2022/07/07 11:20:57;;;;;;;2.33;0.70;;;22.20;96.40;;;;;;5065841;28;20243;-76
2022/07/07 11:23:27;;;;;;;1.38;1.00;;;22.10;96.80;;;;;;5064579;28;20307;-77
2022/07/07 11:25:58;;;;;;;2.72;0.90;;;22.00;96.60;;;;;;5065500;28;20224;-76
2022/07/07 11:28:26;;;;;;;3.08;1.40;;;21.90;96.80;;;;;;5064734;28;20223;-76
2022/07/07 11:31:05;;;;;;;2.22;1.10;;;21.70;96.80;;;;;;5071227;28;20250;-76
2022/07/07 11:33:34;;;;;;;3.83;1.15;;;21.70;96.40;;;;;;5044188;28;20231;-76
2022/07/07 11:36:13;;;;;;;2.83;1.33;;;21.50;97.10;;;;;;5063675;28;20349;-76
2022/07/07 11:38:40;;;;;;;3.38;1.30;;;21.50;97.20;;;;;;5063687;28;20219;-77
2022/07/07 11:41:07;;;;;;;2.42;1.05;;;21.40;97.40;;;;;;5056202;28;20226;-77
2022/07/07 11:43:34;;;;;;;2.65;1.10;;;21.30;97.70;;;;;;5058361;28;20242;-76
2022/07/07 11:46:00;;;;;;;2.65;1.00;;;21.40;97.90;;;;;;5059762;28;20226;-77
2022/07/07 11:48:35;;;;;;;4.63;1.15;;;21.40;98.10;;;;;;5055997;28;22132;-76
2022/07/07 11:51:01;;;;;;;2.90;1.15;;;21.50;97.90;;;;;;5066641;28;20229;-77
2022/07/07 11:53:28;;;;;;;4.38;1.23;;;21.60;97.60;;;;;;5060232;28;20231;-76
2022/07/07 11:55:55;;;;;;;2.85;1.00;;;21.60;97.50;;;;;;5077667;28;20246;-76
2022/07/07 11:58:22;;;;;;;4.38;0.98;;;21.50;97.60;;;;;;5061140;28;20264;-79
2022/07/07 12:00:54;;;;;;;2.55;1.05;;;21.30;97.50;;;;;;5079380;28;20817;-80
2022/07/07 12:03:32;;;;;;;1.02;0.70;;;21.20;97.60;;;;;;5065837;28;20223;-78
2022/07/07 12:06:02;;;;;;;3.83;0.95;;;21.00;97.70;;;;;;5061546;28;20311;-78
2022/07/07 12:08:37;;;;;;;2.78;1.00;;;21.00;98.10;;;;;;5068900;28;20222;-76
2022/07/07 12:11:04;;;;;;;0.82;0.47;;;21.00;98.10;;;;;;5065802;28;20227;-78
2022/07/07 12:13:31;;;;;;;2.15;0.75;;;21.10;98.10;;;;;;5065283;28;20237;-78
2022/07/07 12:16:03;;;;;;;2.85;0.80;;;21.10;97.90;;;;;;5053423;28;20228;-78
2022/07/07 12:18:38;;;;;;;3.28;0.75;;;21.00;97.50;;;;;;5069932;28;20215;-79
2022/07/07 12:21:08;;;;;;;1.48;0.70;;;20.90;97.80;;;;;;5067172;28;20242;-80
2022/07/07 12:23:39;;;;;;;2.63;1.00;;;20.80;97.90;;;;;;5072187;28;20231;-78
2022/07/07 12:26:17;;;;;;;2.53;1.00;;;20.80;98.10;;;;;;5065776;28;20665;-78
2022/07/07 12:28:44;;;;;;;1.20;0.77;;;20.80;98.40;;;;;;5071026;28;20317;-78
2022/07/07 12:31:17;;;;;;;1.75;0.63;;;20.80;97.60;;;;;;5063702;28;20258;-78
2022/07/07 12:33:44;;;;;;;3.55;1.20;;;20.80;97.40;;;;;;5067563;28;20561;-77
2022/07/07 12:36:14;;;;;;;2.78;0.90;;;20.70;97.40;;;;;;5068831;28;20656;-77
2022/07/07 12:38:44;;;;;;;3.83;1.05;;;20.60;97.50;;;;;;5064925;28;20215;-77
2022/07/07 12:41:24;;;;;;;4.72;1.33;;;20.50;97.70;;;;;;5064236;28;20272;-77
2022/07/07 12:43:52;;;;;;;5.05;1.60;;;20.30;97.60;;;;;;5065341;28;20223;-77
2022/07/07 12:46:19;;;;;;;4.63;1.60;;;20.20;98.00;;;;;;5063570;28;20224;-75
2022/07/07 12:48:49;;;;;;;7.60;1.42;;;20.20;98.30;;;;;;5062458;28;20235;-75
2022/07/07 12:51:18;;;;;;;4.32;1.35;;;20.20;98.50;;;;;;5066711;28;20322;-75